sensor_id;sensor_type;location;lat;lon;timestamp;pressure;altitude;pressure_sealevel;temperature;humidity
20145;BME280;10233;50.814;6.590;2023-12-04T00:00:24;100058.28;;;1.86;100.00
20145;BME280;10233;50.814;6.590;2023-12-04T00:01:25;100069.34;;;1.80;100.00
20145;BME280;10233;50.814;6.590;2023-12-04T00:02:26;100059.84;;;1.79;100.00
20145;BME280;10233;50.814;6.590;2023-12-04T00:03:26;100059.84;;;1.79;100.00
20145;BME280;10233;50.814;6.590;2023-12-04T00:04:27;100054.19;;;1.84;100.00
20145;BME280;10233;50.814;6.590;2023-12-04T00:05:27;100059.59;;;1.90;100.00
20145;BME280;10233;50.814;6.590;2023-12-04T00:06:28;100048.47;;;1.88;100.00
20145;BME280;10233;50.814;6.590;2023-12-04T00:07:28;100057.31;;;1.87;100.00
20145;BME280;10233;50.814;6.590;2023-12-04T00:08:29;100053.81;;;1.79;100.00
20145;BME280;10233;50.814;6.590;2023-12-04T00:09:29;100047.06;;;1.76;100.00
20145;BME280;10233;50.814;6.590;2023-12-04T00:10:30;100045.03;;;1.70;100.00
20145;BME280;10233;50.814;6.590;2023-12-04T00:11:30;100055.13;;;1.65;100.00
20145;BME280;10233;50.814;6.590;2023-12-04T00:12:31;100052.75;;;1.54;100.00
20145;BME280;10233;50.814;6.590;2023-12-04T00:13:31;100049.09;;;1.47;100.00
20145;BME280;10233;50.814;6.590;2023-12-04T00:14:32;100050.50;;;1.42;100.00
20145;BME280;10233;50.814;6.590;2023-12-04T00:15:32;100047.59;;;1.45;100.00
20145;BME280;10233;50.814;6.590;2023-12-04T00:16:34;100051.47;;;1.41;100.00
20145;BME280;10233;50.814;6.590;2023-12-04T00:17:36;100053.97;;;1.42;100.00
20145;BME280;10233;50.814;6.590;2023-12-04T00:18:39;100054.69;;;1.35;100.00
20145;BME280;10233;50.814;6.590;2023-12-04T00:19:40;100047.22;;;1.40;100.00
20145;BME280;10233;50.814;6.590;2023-12-04T00:20:40;100044.06;;;1.36;100.00
20145;BME280;10233;50.814;6.590;2023-12-04T00:21:41;100039.19;;;1.41;100.00
20145;BME280;10233;50.814;6.590;2023-12-04T00:22:41;100042.56;;;1.51;100.00
20145;BME280;10233;50.814;6.590;2023-12-04T00:23:42;100046.03;;;1.52;100.00
20145;BME280;10233;50.814;6.590;2023-12-04T00:24:42;100042.06;;;1.48;100.00
20145;BME280;10233;50.814;6.590;2023-12-04T00:25:42;100045.50;;;1.48;100.00
20145;BME280;10233;50.814;6.590;2023-12-04T00:26:43;100032.47;;;1.56;100.00
20145;BME280;10233;50.814;6.590;2023-12-04T00:27:44;100041.38;;;1.46;100.00
20145;BME280;10233;50.814;6.590;2023-12-04T00:28:44;100029.09;;;1.46;100.00
20145;BME280;10233;50.814;6.590;2023-12-04T00:29:44;100028.53;;;1.35;100.00
20145;BME280;10233;50.814;6.590;2023-12-04T00:30:45;100023.81;;;1.38;100.00
20145;BME280;10233;50.814;6.590;2023-12-04T00:31:46;100035.03;;;1.31;100.00
20145;BME280;10233;50.814;6.590;2023-12-04T00:32:46;100024.03;;;1.27;100.00
20145;BME280;10233;50.814;6.590;2023-12-04T00:33:47;100026.41;;;1.21;100.00
20145;BME280;10233;50.814;6.590;2023-12-04T00:34:48;100027.53;;;1.18;100.00
20145;BME280;10233;50.814;6.590;2023-12-04T00:35:48;100020.44;;;1.28;100.00
20145;BME280;10233;50.814;6.590;2023-12-04T00:36:49;100023.88;;;1.28;100.00
20145;BME280;10233;50.814;6.590;2023-12-04T00:37:49;100022.53;;;1.25;100.00
20145;BME280;10233;50.814;6.590;2023-12-04T00:38:50;100019.38;;;1.21;100.00
20145;BME280;10233;50.814;6.590;2023-12-04T00:39:50;100014.75;;;1.15;100.00
20145;BME280;10233;50.814;6.590;2023-12-04T00:40:50;100009.66;;;1.13;100.00
20145;BME280;10233;50.814;6.590;2023-12-04T00:41:51;100019.59;;;1.10;100.00
20145;BME280;10233;50.814;6.590;2023-12-04T00:42:51;100009.41;;;1.07;100.00
20145;BME280;10233;50.814;6.590;2023-12-04T00:43:52;100013.00;;;1.06;100.00
20145;BME280;10233;50.814;6.590;2023-12-04T00:44:52;100006.78;;;1.07;100.00
20145;BME280;10233;50.814;6.590;2023-12-04T00:45:52;100015.63;;;1.06;100.00
20145;BME280;10233;50.814;6.590;2023-12-04T00:46:53;100006.59;;;1.01;100.00
20145;BME280;10233;50.814;6.590;2023-12-04T00:47:53;99999.41;;;1.02;100.00
20145;BME280;10233;50.814;6.590;2023-12-04T00:48:54;100003.66;;;1.03;100.00
20145;BME280;10233;50.814;6.590;2023-12-04T00:49:54;100000.06;;;1.04;100.00
20145;BME280;10233;50.814;6.590;2023-12-04T00:50:54;99997.16;;;1.08;100.00
20145;BME280;10233;50.814;6.590;2023-12-04T00:51:55;99996.88;;;1.11;100.00
20145;BME280;10233;50.814;6.590;2023-12-04T00:52:55;99995.91;;;1.12;100.00
20145;BME280;10233;50.814;6.590;2023-12-04T00:53:56;99998.53;;;1.12;100.00
20145;BME280;10233;50.814;6.590;2023-12-04T00:54:56;100002.63;;;1.14;100.00
20145;BME280;10233;50.814;6.590;2023-12-04T00:55:57;100001.50;;;1.17;100.00
20145;BME280;10233;50.814;6.590;2023-12-04T00:56:57;99999.56;;;1.18;100.00
20145;BME280;10233;50.814;6.590;2023-12-04T00:57:57;99994.31;;;1.18;100.00
20145;BME280;10233;50.814;6.590;2023-12-04T00:58:58;100000.41;;;1.19;100.00
20145;BME280;10233;50.814;6.590;2023-12-04T00:59:58;100006.88;;;1.15;100.00
20145;BME280;10233;50.814;6.590;2023-12-04T01:00:59;100002.41;;;1.25;100.00
20145;BME280;10233;50.814;6.590;2023-12-04T01:02:00;100011.09;;;1.26;100.00
20145;BME280;10233;50.814;6.590;2023-12-04T01:03:00;100003.91;;;1.27;100.00
20145;BME280;10233;50.814;6.590;2023-12-04T01:04:01;99994.94;;;1.30;100.00
20145;BME280;10233;50.814;6.590;2023-12-04T01:05:02;99992.81;;;1.33;100.00
20145;BME280;10233;50.814;6.590;2023-12-04T01:06:03;100000.25;;;1.38;100.00
20145;BME280;10233;50.814;6.590;2023-12-04T01:07:03;99995.03;;;1.38;100.00
20145;BME280;10233;50.814;6.590;2023-12-04T01:08:04;99987.16;;;1.38;100.00
20145;BME280;10233;50.814;6.590;2023-12-04T01:09:04;99992.06;;;1.41;100.00
20145;BME280;10233;50.814;6.590;2023-12-04T01:10:05;99994.41;;;1.44;100.00
20145;BME280;10233;50.814;6.590;2023-12-04T01:11:05;99985.56;;;1.45;100.00
20145;BME280;10233;50.814;6.590;2023-12-04T01:12:06;99982.16;;;1.45;100.00
20145;BME280;10233;50.814;6.590;2023-12-04T01:13:06;99983.47;;;1.48;100.00
20145;BME280;10233;50.814;6.590;2023-12-04T01:14:07;99982.66;;;1.48;100.00
20145;BME280;10233;50.814;6.590;2023-12-04T01:15:09;99970.94;;;1.52;100.00
20145;BME280;10233;50.814;6.590;2023-12-04T01:16:09;99971.28;;;1.57;100.00
20145;BME280;10233;50.814;6.590;2023-12-04T01:17:10;99976.06;;;1.62;100.00
20145;BME280;10233;50.814;6.590;2023-12-04T01:18:10;99971.69;;;1.70;100.00
20145;BME280;10233;50.814;6.590;2023-12-04T01:19:11;99966.78;;;1.67;100.00
20145;BME280;10233;50.814;6.590;2023-12-04T01:20:11;99973.38;;;1.71;100.00
20145;BME280;10233;50.814;6.590;2023-12-04T01:21:12;99965.34;;;1.73;100.00
20145;BME280;10233;50.814;6.590;2023-12-04T01:22:12;99962.53;;;1.66;100.00
20145;BME280;10233;50.814;6.590;2023-12-04T01:23:13;99966.47;;;1.70;100.00
20145;BME280;10233;50.814;6.590;2023-12-04T01:24:15;99962.06;;;1.71;100.00
20145;BME280;10233;50.814;6.590;2023-12-04T01:25:15;99962.56;;;1.74;100.00
20145;BME280;10233;50.814;6.590;2023-12-04T01:26:16;99960.44;;;1.70;100.00
20145;BME280;10233;50.814;6.590;2023-12-04T01:27:16;99957.44;;;1.65;100.00
20145;BME280;10233;50.814;6.590;2023-12-04T01:28:16;99955.94;;;1.62;100.00
20145;BME280;10233;50.814;6.590;2023-12-04T01:29:17;99958.41;;;1.64;100.00
20145;BME280;10233;50.814;6.590;2023-12-04T01:30:17;99957.72;;;1.62;100.00
20145;BME280;10233;50.814;6.590;2023-12-04T01:31:18;99955.81;;;1.64;100.00
20145;BME280;10233;50.814;6.590;2023-12-04T01:32:18;99954.97;;;1.63;100.00
20145;BME280;10233;50.814;6.590;2023-12-04T01:33:19;99954.97;;;1.63;100.00
20145;BME280;10233;50.814;6.590;2023-12-04T01:34:19;99955.63;;;1.65;100.00
20145;BME280;10233;50.814;6.590;2023-12-04T01:35:20;99949.72;;;1.63;100.00
20145;BME280;10233;50.814;6.590;2023-12-04T01:36:20;99952.06;;;1.66;100.00
20145;BME280;10233;50.814;6.590;2023-12-04T01:37:20;99953.69;;;1.67;100.00
20145;BME280;10233;50.814;6.590;2023-12-04T01:38:21;99954.34;;;1.69;100.00
20145;BME280;10233;50.814;6.590;2023-12-04T01:39:21;99955.03;;;1.71;100.00
20145;BME280;10233;50.814;6.590;2023-12-04T01:40:22;99951.59;;;1.71;100.00
20145;BME280;10233;50.814;6.590;2023-12-04T01:41:22;99956.81;;;1.71;100.00
20145;BME280;10233;50.814;6.590;2023-12-04T01:42:22;99952.56;;;1.70;100.00
20145;BME280;10233;50.814;6.590;2023-12-04T01:43:23;99951.69;;;1.61;100.00
20145;BME280;10233;50.814;6.590;2023-12-04T01:44:24;99954.31;;;1.61;100.00
20145;BME280;10233;50.814;6.590;2023-12-04T01:45:24;99953.84;;;1.66;100.00
20145;BME280;10233;50.814;6.590;2023-12-04T01:46:25;99949.72;;;1.63;100.00
20145;BME280;10233;50.814;6.590;2023-12-04T01:47:25;99947.63;;;1.67;100.00
20145;BME280;10233;50.814;6.590;2023-12-04T01:48:26;99941.50;;;1.58;100.00
20145;BME280;10233;50.814;6.590;2023-12-04T01:49:27;99947.25;;;1.62;100.00
20145;BME280;10233;50.814;6.590;2023-12-04T01:50:27;99950.09;;;1.68;100.00
20145;BME280;10233;50.814;6.590;2023-12-04T01:51:28;99945.84;;;1.67;100.00
20145;BME280;10233;50.814;6.590;2023-12-04T01:52:29;99942.91;;;1.70;100.00
20145;BME280;10233;50.814;6.590;2023-12-04T01:53:30;99953.22;;;1.72;100.00
20145;BME280;10233;50.814;6.590;2023-12-04T01:54:31;99945.50;;;1.70;100.00
20145;BME280;10233;50.814;6.590;2023-12-04T01:55:32;99939.09;;;1.65;100.00
20145;BME280;10233;50.814;6.590;2023-12-04T01:56:36;99938.38;;;1.55;100.00
20145;BME280;10233;50.814;6.590;2023-12-04T01:57:37;99932.16;;;1.56;100.00
20145;BME280;10233;50.814;6.590;2023-12-04T01:58:38;99932.59;;;1.51;100.00
20145;BME280;10233;50.814;6.590;2023-12-04T01:59:38;99939.44;;;1.44;100.00
20145;BME280;10233;50.814;6.590;2023-12-04T02:00:39;99944.00;;;1.42;100.00
20145;BME280;10233;50.814;6.590;2023-12-04T02:01:39;99935.78;;;1.37;100.00
20145;BME280;10233;50.814;6.590;2023-12-04T02:02:41;99932.63;;;1.33;100.00
20145;BME280;10233;50.814;6.590;2023-12-04T02:03:45;99936.59;;;1.20;100.00
20145;BME280;10233;50.814;6.590;2023-12-04T02:04:46;99939.53;;;1.17;100.00
20145;BME280;10233;50.814;6.590;2023-12-04T02:05:47;99935.03;;;1.09;100.00
20145;BME280;10233;50.814;6.590;2023-12-04T02:06:47;99944.69;;;1.09;100.00
20145;BME280;10233;50.814;6.590;2023-12-04T02:07:48;99940.28;;;1.09;100.00
20145;BME280;10233;50.814;6.590;2023-12-04T02:08:48;99930.78;;;1.08;100.00
20145;BME280;10233;50.814;6.590;2023-12-04T02:09:49;99930.78;;;1.08;100.00
20145;BME280;10233;50.814;6.590;2023-12-04T02:10:50;99935.22;;;1.08;100.00
20145;BME280;10233;50.814;6.590;2023-12-04T02:11:50;99930.63;;;1.10;100.00
20145;BME280;10233;50.814;6.590;2023-12-04T02:12:52;99938.09;;;1.05;100.00
20145;BME280;10233;50.814;6.590;2023-12-04T02:13:52;99933.41;;;1.08;100.00
20145;BME280;10233;50.814;6.590;2023-12-04T02:14:53;99935.50;;;1.05;100.00
20145;BME280;10233;50.814;6.590;2023-12-04T02:15:54;99933.34;;;1.01;100.00
20145;BME280;10233;50.814;6.590;2023-12-04T02:16:55;99926.91;;;0.95;100.00
20145;BME280;10233;50.814;6.590;2023-12-04T02:17:57;99931.28;;;0.94;100.00
20145;BME280;10233;50.814;6.590;2023-12-04T02:18:58;99937.34;;;0.95;100.00
20145;BME280;10233;50.814;6.590;2023-12-04T02:19:59;99929.22;;;0.98;100.00
20145;BME280;10233;50.814;6.590;2023-12-04T02:21:00;99925.53;;;0.91;100.00
20145;BME280;10233;50.814;6.590;2023-12-04T02:22:01;99927.88;;;0.94;100.00
20145;BME280;10233;50.814;6.590;2023-12-04T02:23:02;99930.16;;;0.97;100.00
20145;BME280;10233;50.814;6.590;2023-12-04T02:24:03;99924.44;;;0.93;100.00
20145;BME280;10233;50.814;6.590;2023-12-04T02:25:04;99925.50;;;1.01;100.00
20145;BME280;10233;50.814;6.590;2023-12-04T02:26:10;99917.47;;;1.02;100.00
20145;BME280;10233;50.814;6.590;2023-12-04T02:27:37;99916.34;;;1.04;100.00
20145;BME280;10233;50.814;6.590;2023-12-04T02:28:38;99912.59;;;1.07;100.00
20145;BME280;10233;50.814;6.590;2023-12-04T02:29:46;99921.91;;;1.02;100.00
20145;BME280;10233;50.814;6.590;2023-12-04T02:30:48;99923.31;;;0.96;100.00
20145;BME280;10233;50.814;6.590;2023-12-04T02:31:50;99923.91;;;0.90;100.00
20145;BME280;10233;50.814;6.590;2023-12-04T02:32:52;99913.91;;;0.86;100.00
20145;BME280;10233;50.814;6.590;2023-12-04T02:33:56;99922.41;;;0.88;100.00
20145;BME280;10233;50.814;6.590;2023-12-04T02:34:59;99916.66;;;0.84;100.00
20145;BME280;10233;50.814;6.590;2023-12-04T02:36:04;99909.09;;;0.81;100.00
20145;BME280;10233;50.814;6.590;2023-12-04T02:37:06;99914.34;;;0.81;100.00
20145;BME280;10233;50.814;6.590;2023-12-04T02:38:07;99906.06;;;0.86;100.00
20145;BME280;10233;50.814;6.590;2023-12-04T02:39:08;99907.47;;;0.80;100.00
20145;BME280;10233;50.814;6.590;2023-12-04T02:40:10;99900.97;;;0.84;100.00
20145;BME280;10233;50.814;6.590;2023-12-04T02:41:11;99907.31;;;0.82;100.00
20145;BME280;10233;50.814;6.590;2023-12-04T02:42:22;99928.47;;;0.88;100.00
20145;BME280;10233;50.814;6.590;2023-12-04T02:43:25;99905.38;;;0.83;100.00
20145;BME280;10233;50.814;6.590;2023-12-04T02:44:25;99906.41;;;0.73;100.00
20145;BME280;10233;50.814;6.590;2023-12-04T02:45:32;99909.47;;;0.68;100.00
20145;BME280;10233;50.814;6.590;2023-12-04T02:46:37;99896.84;;;0.64;100.00
20145;BME280;10233;50.814;6.590;2023-12-04T02:47:38;99903.63;;;0.74;100.00
20145;BME280;10233;50.814;6.590;2023-12-04T02:48:38;99909.22;;;0.62;100.00
20145;BME280;10233;50.814;6.590;2023-12-04T02:49:39;99910.22;;;0.61;100.00
20145;BME280;10233;50.814;6.590;2023-12-04T02:50:39;99901.84;;;0.57;100.00
20145;BME280;10233;50.814;6.590;2023-12-04T02:51:41;99905.63;;;0.63;100.00
20145;BME280;10233;50.814;6.590;2023-12-04T02:52:41;99907.81;;;0.68;100.00
20145;BME280;10233;50.814;6.590;2023-12-04T02:53:42;99901.75;;;0.67;100.00
20145;BME280;10233;50.814;6.590;2023-12-04T02:54:42;99894.63;;;0.69;100.00
20145;BME280;10233;50.814;6.590;2023-12-04T02:55:43;99903.25;;;0.69;100.00
20145;BME280;10233;50.814;6.590;2023-12-04T02:56:43;99899.53;;;0.72;100.00
20145;BME280;10233;50.814;6.590;2023-12-04T02:57:43;99895.06;;;0.82;100.00
20145;BME280;10233;50.814;6.590;2023-12-04T02:58:44;99896.16;;;0.79;100.00
20145;BME280;10233;50.814;6.590;2023-12-04T02:59:44;99891.41;;;0.75;100.00
20145;BME280;10233;50.814;6.590;2023-12-04T03:00:45;99894.25;;;0.82;100.00
20145;BME280;10233;50.814;6.590;2023-12-04T03:01:45;99889.81;;;0.82;100.00
20145;BME280;10233;50.814;6.590;2023-12-04T03:02:46;99887.00;;;0.93;100.00
20145;BME280;10233;50.814;6.590;2023-12-04T03:03:46;99889.16;;;0.98;100.00
20145;BME280;10233;50.814;6.590;2023-12-04T03:04:46;99889.53;;;0.85;100.00
20145;BME280;10233;50.814;6.590;2023-12-04T03:05:47;99882.28;;;0.79;100.00
20145;BME280;10233;50.814;6.590;2023-12-04T03:06:47;99872.25;;;0.74;100.00
20145;BME280;10233;50.814;6.590;2023-12-04T03:07:48;99878.97;;;0.77;100.00
20145;BME280;10233;50.814;6.590;2023-12-04T03:08:48;99877.34;;;0.76;100.00
20145;BME280;10233;50.814;6.590;2023-12-04T03:09:48;99873.97;;;0.66;100.00
20145;BME280;10233;50.814;6.590;2023-12-04T03:11:21;99872.94;;;0.59;100.00
20145;BME280;10233;50.814;6.590;2023-12-04T03:12:21;99871.41;;;0.39;100.00
20145;BME280;10233;50.814;6.590;2023-12-04T03:13:22;99869.84;;;0.46;100.00
20145;BME280;10233;50.814;6.590;2023-12-04T03:14:22;99868.88;;;0.47;100.00
20145;BME280;10233;50.814;6.590;2023-12-04T03:15:24;99865.16;;;0.49;100.00
20145;BME280;10233;50.814;6.590;2023-12-04T03:16:24;99867.25;;;0.46;100.00
20145;BME280;10233;50.814;6.590;2023-12-04T03:17:25;99861.50;;;0.43;100.00
20145;BME280;10233;50.814;6.590;2023-12-04T03:18:26;99872.00;;;0.33;100.00
20145;BME280;10233;50.814;6.590;2023-12-04T03:19:26;99872.00;;;0.33;100.00
20145;BME280;10233;50.814;6.590;2023-12-04T03:20:27;99866.69;;;0.25;100.00
20145;BME280;10233;50.814;6.590;2023-12-04T03:21:27;99859.38;;;0.28;100.00
20145;BME280;10233;50.814;6.590;2023-12-04T03:22:29;99863.91;;;0.26;100.00
20145;BME280;10233;50.814;6.590;2023-12-04T03:23:29;99854.97;;;0.29;100.00
20145;BME280;10233;50.814;6.590;2023-12-04T03:24:29;99854.41;;;0.35;100.00
20145;BME280;10233;50.814;6.590;2023-12-04T03:25:30;99852.44;;;0.37;100.00
20145;BME280;10233;50.814;6.590;2023-12-04T03:26:30;99851.19;;;0.41;100.00
20145;BME280;10233;50.814;6.590;2023-12-04T03:27:31;99847.88;;;0.39;100.00
20145;BME280;10233;50.814;6.590;2023-12-04T03:28:31;99845.81;;;0.43;100.00
20145;BME280;10233;50.814;6.590;2023-12-04T03:29:31;99844.56;;;0.47;100.00
20145;BME280;10233;50.814;6.590;2023-12-04T03:30:32;99842.31;;;0.52;100.00
20145;BME280;10233;50.814;6.590;2023-12-04T03:31:32;99836.91;;;0.53;100.00
20145;BME280;10233;50.814;6.590;2023-12-04T03:32:34;99840.50;;;0.52;100.00
20145;BME280;10233;50.814;6.590;2023-12-04T03:33:34;99833.38;;;0.54;100.00
20145;BME280;10233;50.814;6.590;2023-12-04T03:34:35;99840.38;;;0.53;100.00
20145;BME280;10233;50.814;6.590;2023-12-04T03:35:35;99836.63;;;0.56;100.00
20145;BME280;10233;50.814;6.590;2023-12-04T03:36:36;99835.00;;;0.55;100.00
20145;BME280;10233;50.814;6.590;2023-12-04T03:37:36;99835.66;;;0.57;100.00
20145;BME280;10233;50.814;6.590;2023-12-04T03:38:37;99834.16;;;0.54;100.00
20145;BME280;10233;50.814;6.590;2023-12-04T03:39:37;99836.91;;;0.53;100.00
20145;BME280;10233;50.814;6.590;2023-12-04T03:40:38;99831.16;;;0.49;100.00
20145;BME280;10233;50.814;6.590;2023-12-04T03:41:38;99835.28;;;0.52;100.00
20145;BME280;10233;50.814;6.590;2023-12-04T03:42:39;99831.03;;;0.51;100.00
20145;BME280;10233;50.814;6.590;2023-12-04T03:43:41;99829.06;;;0.53;100.00
20145;BME280;10233;50.814;6.590;2023-12-04T03:44:41;99825.94;;;0.49;100.00
20145;BME280;10233;50.814;6.590;2023-12-04T03:45:42;99836.16;;;0.43;100.00
20145;BME280;10233;50.814;6.590;2023-12-04T03:46:42;99827.75;;;0.49;100.00
20145;BME280;10233;50.814;6.590;2023-12-04T03:47:43;99831.13;;;0.59;100.00
20145;BME280;10233;50.814;6.590;2023-12-04T03:48:43;99837.00;;;0.61;100.00
20145;BME280;10233;50.814;6.590;2023-12-04T03:49:43;99827.66;;;0.58;100.00
20145;BME280;10233;50.814;6.590;2023-12-04T03:50:44;99817.72;;;0.62;100.00
20145;BME280;10233;50.814;6.590;2023-12-04T03:51:44;99825.91;;;0.59;100.00
20145;BME280;10233;50.814;6.590;2023-12-04T03:52:44;99828.50;;;0.42;100.00
20145;BME280;10233;50.814;6.590;2023-12-04T03:53:45;99831.13;;;0.42;100.00
20145;BME280;10233;50.814;6.590;2023-12-04T03:54:45;99823.41;;;0.40;100.00
20145;BME280;10233;50.814;6.590;2023-12-04T03:55:46;99820.47;;;0.43;100.00
20145;BME280;10233;50.814;6.590;2023-12-04T03:56:46;99821.81;;;0.29;100.00
20145;BME280;10233;50.814;6.590;2023-12-04T03:57:47;99822.56;;;0.22;100.00
20145;BME280;10233;50.814;6.590;2023-12-04T03:58:47;99819.13;;;0.21;100.00
20145;BME280;10233;50.814;6.590;2023-12-04T03:59:48;99822.38;;;0.06;100.00
20145;BME280;10233;50.814;6.590;2023-12-04T04:00:48;99818.06;;;0.14;100.00
20145;BME280;10233;50.814;6.590;2023-12-04T04:01:48;99817.84;;;0.08;100.00
20145;BME280;10233;50.814;6.590;2023-12-04T04:02:49;99815.28;;;-0.02;100.00
20145;BME280;10233;50.814;6.590;2023-12-04T04:03:49;99814.56;;;0.06;100.00
20145;BME280;10233;50.814;6.590;2023-12-04T04:04:50;99815.22;;;0.08;100.00
20145;BME280;10233;50.814;6.590;2023-12-04T04:05:50;99807.25;;;0.09;100.00
20145;BME280;10233;50.814;6.590;2023-12-04T04:06:51;99805.66;;;0.16;100.00
20145;BME280;10233;50.814;6.590;2023-12-04T04:07:51;99803.00;;;0.26;100.00
20145;BME280;10233;50.814;6.590;2023-12-04T04:08:51;99803.91;;;0.17;100.00
20145;BME280;10233;50.814;6.590;2023-12-04T04:09:52;99794.72;;;0.30;100.00
20145;BME280;10233;50.814;6.590;2023-12-04T04:10:53;99792.63;;;0.34;100.00
20145;BME280;10233;50.814;6.590;2023-12-04T04:11:53;99796.06;;;0.34;100.00
20145;BME280;10233;50.814;6.590;2023-12-04T04:12:54;99799.16;;;0.30;100.00
20145;BME280;10233;50.814;6.590;2023-12-04T04:13:54;99795.69;;;0.29;100.00
20145;BME280;10233;50.814;6.590;2023-12-04T04:14:55;99796.22;;;0.33;100.00
20145;BME280;10233;50.814;6.590;2023-12-04T04:15:56;99801.31;;;0.34;100.00
20145;BME280;10233;50.814;6.590;2023-12-04T04:16:57;99796.91;;;0.35;100.00
20145;BME280;10233;50.814;6.590;2023-12-04T04:17:57;99801.53;;;0.41;100.00
20145;BME280;10233;50.814;6.590;2023-12-04T04:18:58;99803.78;;;0.36;100.00
20145;BME280;10233;50.814;6.590;2023-12-04T04:19:58;99796.31;;;0.41;100.00
20145;BME280;10233;50.814;6.590;2023-12-04T04:20:59;99797.47;;;0.29;100.00
20145;BME280;10233;50.814;6.590;2023-12-04T04:21:59;99796.06;;;0.34;100.00
20145;BME280;10233;50.814;6.590;2023-12-04T04:22:59;99794.13;;;0.36;100.00
20145;BME280;10233;50.814;6.590;2023-12-04T04:24:00;99796.59;;;0.38;100.00
20145;BME280;10233;50.814;6.590;2023-12-04T04:25:01;99797.66;;;0.45;100.00
20145;BME280;10233;50.814;6.590;2023-12-04T04:26:02;99785.25;;;0.47;100.00
20145;BME280;10233;50.814;6.590;2023-12-04T04:27:02;99785.25;;;0.47;100.00
20145;BME280;10233;50.814;6.590;2023-12-04T04:28:03;99778.69;;;0.43;100.00
20145;BME280;10233;50.814;6.590;2023-12-04T04:29:03;99784.22;;;0.40;100.00
20145;BME280;10233;50.814;6.590;2023-12-04T04:30:04;99787.03;;;0.29;100.00
20145;BME280;10233;50.814;6.590;2023-12-04T04:31:05;99782.78;;;0.28;100.00
20145;BME280;10233;50.814;6.590;2023-12-04T04:32:06;99777.50;;;0.20;100.00
20145;BME280;10233;50.814;6.590;2023-12-04T04:33:06;99782.41;;;0.23;100.00
20145;BME280;10233;50.814;6.590;2023-12-04T04:34:07;99781.88;;;0.19;100.00
20145;BME280;10233;50.814;6.590;2023-12-04T04:35:07;99789.94;;;0.08;100.00
20145;BME280;10233;50.814;6.590;2023-12-04T04:36:09;99786.22;;;0.11;100.00
20145;BME280;10233;50.814;6.590;2023-12-04T04:37:10;99790.47;;;0.12;100.00
20145;BME280;10233;50.814;6.590;2023-12-04T04:38:10;99789.63;;;0.11;100.00
20145;BME280;10233;50.814;6.590;2023-12-04T04:39:12;99795.41;;;0.15;100.00
20145;BME280;10233;50.814;6.590;2023-12-04T04:40:13;99789.34;;;0.14;100.00
20145;BME280;10233;50.814;6.590;2023-12-04T04:41:14;99785.22;;;0.12;100.00
20145;BME280;10233;50.814;6.590;2023-12-04T04:42:15;99779.78;;;0.05;100.00
20145;BME280;10233;50.814;6.590;2023-12-04T04:43:15;99789.94;;;0.08;100.00
20145;BME280;10233;50.814;6.590;2023-12-04T04:44:16;99781.78;;;0.11;100.00
20145;BME280;10233;50.814;6.590;2023-12-04T04:45:16;99780.28;;;0.09;100.00
20145;BME280;10233;50.814;6.590;2023-12-04T04:46:17;99782.75;;;0.10;100.00
20145;BME280;10233;50.814;6.590;2023-12-04T04:47:17;99786.94;;;0.03;100.00
20145;BME280;10233;50.814;6.590;2023-12-04T04:48:18;99779.50;;;0.08;100.00
20145;BME280;10233;50.814;6.590;2023-12-04T04:49:20;99787.00;;;0.11;100.00
20145;BME280;10233;50.814;6.590;2023-12-04T04:50:20;99791.28;;;0.13;100.00
20145;BME280;10233;50.814;6.590;2023-12-04T04:51:21;99783.28;;;0.14;100.00
20145;BME280;10233;50.814;6.590;2023-12-04T04:52:22;99786.88;;;0.13;100.00
20145;BME280;10233;50.814;6.590;2023-12-04T04:53:23;99784.47;;;0.02;100.00
20145;BME280;10233;50.814;6.590;2023-12-04T04:54:23;99782.13;;;-0.01;100.00
20145;BME280;10233;50.814;6.590;2023-12-04T04:55:24;99774.31;;;-0.01;100.00
20145;BME280;10233;50.814;6.590;2023-12-04T04:56:24;99779.28;;;-0.08;100.00
20145;BME280;10233;50.814;6.590;2023-12-04T04:57:24;99770.19;;;-0.04;100.00
20145;BME280;10233;50.814;6.590;2023-12-04T04:58:25;99773.78;;;-0.05;100.00
20145;BME280;10233;50.814;6.590;2023-12-04T04:59:25;99772.94;;;-0.05;100.00
20145;BME280;10233;50.814;6.590;2023-12-04T05:00:27;99777.66;;;-0.09;100.00
20145;BME280;10233;50.814;6.590;2023-12-04T05:01:27;99765.72;;;-0.11;100.00
20145;BME280;10233;50.814;6.590;2023-12-04T05:02:28;99774.66;;;-0.14;100.00
20145;BME280;10233;50.814;6.590;2023-12-04T05:03:28;99772.88;;;-0.13;100.00
20145;BME280;10233;50.814;6.590;2023-12-04T05:04:29;99778.50;;;-0.08;100.00
20145;BME280;10233;50.814;6.590;2023-12-04T05:05:29;99768.31;;;-0.11;100.00
20145;BME280;10233;50.814;6.590;2023-12-04T05:06:30;99764.22;;;-0.14;100.00
20145;BME280;10233;50.814;6.590;2023-12-04T05:07:31;99767.22;;;-0.09;100.00
20145;BME280;10233;50.814;6.590;2023-12-04T05:08:31;99769.03;;;-0.09;100.00
20145;BME280;10233;50.814;6.590;2023-12-04T05:09:32;99762.13;;;-0.10;100.00
20145;BME280;10233;50.814;6.590;2023-12-04T05:10:32;99766.69;;;-0.12;100.00
20145;BME280;10233;50.814;6.590;2023-12-04T05:11:33;99772.94;;;-0.05;100.00
20145;BME280;10233;50.814;6.590;2023-12-04T05:12:33;99772.66;;;-0.02;100.00
20145;BME280;10233;50.814;6.590;2023-12-04T05:13:33;99773.19;;;0.01;100.00
20145;BME280;10233;50.814;6.590;2023-12-04T05:14:34;99760.44;;;-0.02;100.00
20145;BME280;10233;50.814;6.590;2023-12-04T05:15:34;99768.56;;;-0.05;100.00
20145;BME280;10233;50.814;6.590;2023-12-04T05:16:36;99767.91;;;-0.07;100.00
20145;BME280;10233;50.814;6.590;2023-12-04T05:17:36;99753.88;;;-0.06;100.00
20145;BME280;10233;50.814;6.590;2023-12-04T05:18:38;99757.84;;;-0.02;100.00
20145;BME280;10233;50.814;6.590;2023-12-04T05:19:39;99755.75;;;0.02;100.00
20145;BME280;10233;50.814;6.590;2023-12-04T05:20:39;99760.13;;;0.01;100.00
20145;BME280;10233;50.814;6.590;2023-12-04T05:21:40;99756.41;;;0.04;100.00